aviador You're here:

KMLP Decoded Metar

MULLAN PASS in ID, USA
Report Time2018-07-17 00:53:00
UTC Time2018-07-17 01:52:32
Flight Rules vfr VFR
Wind220° at 07 kt
W.Rank220° ranks 5
Current wind is above 220° avg. (6.5)
Visibility9999 m
Phenomena:N/A
Clouds:N/A
Expected CloudBase > 7,200 ft AGL from Temp-Dew spread
CeilingNone
Temp21°C (ISA +18)
Dew Point03°C (31% RH)
AAT17.0°C
QNH1024 hPa
Density Alt7,831 ft
Elevation6,027 ft
Report Wrong Elevation
Raw Report
KMLP 170053Z AUTO 22007KT 10SM CLR 21/03 A3023 RMK AO2 SLP129
T02110033=

Extra information for KMLP:More info

Metar Taf Metar & Taf Last 4 Metars F.Rules Stats Wind Profile Meteogram Temp Stats Airport Information Weather charts Add Link Nearby VenuesMetar ALERT Operation Metar Decoded Social comments

AIRNAV info for KMLP